sensor_id;sensor_type;location;lat;lon;timestamp;temperature;humidity
27162;DHT22;54464;50.558;9.704;2022-11-15T01:37:48;10.90;99.90
27162;DHT22;54464;50.558;9.704;2022-11-15T01:42:49;10.90;99.90
27162;DHT22;54464;50.558;9.704;2022-11-15T01:45:15;10.90;99.90
27162;DHT22;54464;50.558;9.704;2022-11-15T01:47:46;10.90;99.90
27162;DHT22;54464;50.558;9.704;2022-11-15T01:50:16;10.90;99.90
27162;DHT22;54464;50.558;9.704;2022-11-15T01:52:43;10.80;99.90
27162;DHT22;54464;50.558;9.704;2022-11-15T01:55:16;10.80;99.90
27162;DHT22;54464;50.558;9.704;2022-11-15T01:57:45;10.80;99.90
27162;DHT22;54464;50.558;9.704;2022-11-15T02:00:12;10.80;99.90
27162;DHT22;54464;50.558;9.704;2022-11-15T02:02:38;10.80;99.90
27162;DHT22;54464;50.558;9.704;2022-11-15T02:05:04;10.80;99.90
27162;DHT22;54464;50.558;9.704;2022-11-15T02:07:32;10.80;99.90
27162;DHT22;54464;50.558;9.704;2022-11-15T02:10:04;10.90;99.90
27162;DHT22;54464;50.558;9.704;2022-11-15T02:12:32;10.80;99.90
27162;DHT22;54464;50.558;9.704;2022-11-15T02:14:57;10.90;99.90
27162;DHT22;54464;50.558;9.704;2022-11-15T02:20:44;10.90;99.90
27162;DHT22;54464;50.558;9.704;2022-11-15T02:23:45;10.90;99.90
27162;DHT22;54464;50.558;9.704;2022-11-15T02:29:54;10.90;99.90
27162;DHT22;54464;50.558;9.704;2022-11-15T02:32:06;10.90;99.90
27162;DHT22;54464;50.558;9.704;2022-11-15T02:34:50;10.90;99.90
27162;DHT22;54464;50.558;9.704;2022-11-15T02:37:34;10.90;99.90
27162;DHT22;54464;50.558;9.704;2022-11-15T02:40:16;10.90;99.90
27162;DHT22;54464;50.558;9.704;2022-11-15T02:42:53;10.90;99.90
27162;DHT22;54464;50.558;9.704;2022-11-15T02:46:05;10.80;99.90
27162;DHT22;54464;50.558;9.704;2022-11-15T02:48:33;10.80;99.90
27162;DHT22;54464;50.558;9.704;2022-11-15T02:51:01;10.90;99.90
27162;DHT22;54464;50.558;9.704;2022-11-15T02:53:27;10.80;99.90
27162;DHT22;54464;50.558;9.704;2022-11-15T02:55:54;10.80;99.90
27162;DHT22;54464;50.558;9.704;2022-11-15T02:59:02;10.70;99.90
27162;DHT22;54464;50.558;9.704;2022-11-15T03:04:41;10.70;99.90
27162;DHT22;54464;50.558;9.704;2022-11-15T03:07:20;10.70;99.90
27162;DHT22;54464;50.558;9.704;2022-11-15T03:09:57;10.60;99.90
27162;DHT22;54464;50.558;9.704;2022-11-15T03:12:51;10.60;99.90
27162;DHT22;54464;50.558;9.704;2022-11-15T03:15:30;10.50;99.90
27162;DHT22;54464;50.558;9.704;2022-11-15T03:18:19;10.50;99.90
27162;DHT22;54464;50.558;9.704;2022-11-15T03:20:46;10.50;99.90
27162;DHT22;54464;50.558;9.704;2022-11-15T03:23:13;10.40;99.90
27162;DHT22;54464;50.558;9.704;2022-11-15T03:25:41;10.40;99.90
27162;DHT22;54464;50.558;9.704;2022-11-15T03:28:12;10.40;99.90
27162;DHT22;54464;50.558;9.704;2022-11-15T03:30:39;10.30;99.90
27162;DHT22;54464;50.558;9.704;2022-11-15T03:33:05;10.30;99.90
27162;DHT22;54464;50.558;9.704;2022-11-15T03:35:37;10.30;99.90
27162;DHT22;54464;50.558;9.704;2022-11-15T03:38:25;10.30;99.90
27162;DHT22;54464;50.558;9.704;2022-11-15T03:44:08;10.30;99.90
27162;DHT22;54464;50.558;9.704;2022-11-15T03:46:40;10.30;99.90
27162;DHT22;54464;50.558;9.704;2022-11-15T03:49:14;10.30;99.90
27162;DHT22;54464;50.558;9.704;2022-11-15T03:51:41;10.40;99.90
27162;DHT22;54464;50.558;9.704;2022-11-15T03:54:06;10.40;99.90
27162;DHT22;54464;50.558;9.704;2022-11-15T03:56:32;10.40;99.90
27162;DHT22;54464;50.558;9.704;2022-11-15T03:58:58;10.40;99.90
27162;DHT22;54464;50.558;9.704;2022-11-15T04:01:24;10.40;99.90
27162;DHT22;54464;50.558;9.704;2022-11-15T04:03:49;10.30;99.90
27162;DHT22;54464;50.558;9.704;2022-11-15T04:06:15;10.30;99.90
27162;DHT22;54464;50.558;9.704;2022-11-15T04:08:40;10.20;99.90
27162;DHT22;54464;50.558;9.704;2022-11-15T04:11:06;10.20;99.90
27162;DHT22;54464;50.558;9.704;2022-11-15T04:13:32;10.20;99.90
27162;DHT22;54464;50.558;9.704;2022-11-15T04:15:57;10.20;99.90
27162;DHT22;54464;50.558;9.704;2022-11-15T04:18:23;10.10;99.90
27162;DHT22;54464;50.558;9.704;2022-11-15T04:20:49;10.10;99.90
27162;DHT22;54464;50.558;9.704;2022-11-15T04:23:34;10.00;99.90
27162;DHT22;54464;50.558;9.704;2022-11-15T04:26:20;10.00;99.90
27162;DHT22;54464;50.558;9.704;2022-11-15T04:28:46;10.00;99.90
27162;DHT22;54464;50.558;9.704;2022-11-15T04:31:30;10.00;99.90
27162;DHT22;54464;50.558;9.704;2022-11-15T04:33:56;10.10;99.90
27162;DHT22;54464;50.558;9.704;2022-11-15T04:36:22;10.10;99.90
27162;DHT22;54464;50.558;9.704;2022-11-15T04:39:06;10.10;99.90
27162;DHT22;54464;50.558;9.704;2022-11-15T04:41:32;10.10;99.90
27162;DHT22;54464;50.558;9.704;2022-11-15T04:43:58;10.10;99.90
27162;DHT22;54464;50.558;9.704;2022-11-15T04:46:24;10.00;99.90
27162;DHT22;54464;50.558;9.704;2022-11-15T04:48:51;10.00;99.90
27162;DHT22;54464;50.558;9.704;2022-11-15T04:51:17;9.90;99.90
27162;DHT22;54464;50.558;9.704;2022-11-15T04:53:42;10.00;99.90
27162;DHT22;54464;50.558;9.704;2022-11-15T04:56:08;10.00;99.90
27162;DHT22;54464;50.558;9.704;2022-11-15T04:58:34;9.90;99.90
27162;DHT22;54464;50.558;9.704;2022-11-15T05:01:07;9.80;99.90
27162;DHT22;54464;50.558;9.704;2022-11-15T05:03:33;9.70;99.90
27162;DHT22;54464;50.558;9.704;2022-11-15T05:06:17;9.60;99.90
27162;DHT22;54464;50.558;9.704;2022-11-15T05:08:43;9.60;99.90
27162;DHT22;54464;50.558;9.704;2022-11-15T05:11:08;9.60;99.90
27162;DHT22;54464;50.558;9.704;2022-11-15T05:13:34;9.60;99.90
27162;DHT22;54464;50.558;9.704;2022-11-15T05:16:00;9.60;99.90
27162;DHT22;54464;50.558;9.704;2022-11-15T05:18:25;9.60;99.90
27162;DHT22;54464;50.558;9.704;2022-11-15T05:20:51;9.60;99.90
27162;DHT22;54464;50.558;9.704;2022-11-15T05:23:17;9.50;99.90
27162;DHT22;54464;50.558;9.704;2022-11-15T05:25:42;9.50;99.90
27162;DHT22;54464;50.558;9.704;2022-11-15T05:28:08;9.50;99.90
27162;DHT22;54464;50.558;9.704;2022-11-15T05:30:34;9.50;99.90
27162;DHT22;54464;50.558;9.704;2022-11-15T05:32:59;9.40;99.90
27162;DHT22;54464;50.558;9.704;2022-11-15T05:35:34;9.40;99.90
27162;DHT22;54464;50.558;9.704;2022-11-15T05:38:01;9.50;99.90
27162;DHT22;54464;50.558;9.704;2022-11-15T05:40:27;9.40;99.90
27162;DHT22;54464;50.558;9.704;2022-11-15T05:42:54;9.50;99.90
27162;DHT22;54464;50.558;9.704;2022-11-15T05:45:20;9.50;99.90
27162;DHT22;54464;50.558;9.704;2022-11-15T05:47:46;9.40;99.90
27162;DHT22;54464;50.558;9.704;2022-11-15T05:50:14;9.40;99.90
27162;DHT22;54464;50.558;9.704;2022-11-15T05:52:42;9.30;99.90
27162;DHT22;54464;50.558;9.704;2022-11-15T05:55:09;9.30;99.90
27162;DHT22;54464;50.558;9.704;2022-11-15T05:57:35;9.30;99.90
27162;DHT22;54464;50.558;9.704;2022-11-15T06:00:02;9.20;99.90
27162;DHT22;54464;50.558;9.704;2022-11-15T06:02:28;9.20;99.90
27162;DHT22;54464;50.558;9.704;2022-11-15T06:04:53;9.20;99.90
27162;DHT22;54464;50.558;9.704;2022-11-15T06:07:19;9.20;99.90
27162;DHT22;54464;50.558;9.704;2022-11-15T06:09:45;9.20;99.90
27162;DHT22;54464;50.558;9.704;2022-11-15T06:12:10;9.30;99.90
27162;DHT22;54464;50.558;9.704;2022-11-15T06:14:36;9.20;99.90
27162;DHT22;54464;50.558;9.704;2022-11-15T06:17:02;9.30;99.90
27162;DHT22;54464;50.558;9.704;2022-11-15T06:19:28;9.20;99.90
27162;DHT22;54464;50.558;9.704;2022-11-15T06:21:58;9.20;99.90
27162;DHT22;54464;50.558;9.704;2022-11-15T06:24:24;9.20;99.90
27162;DHT22;54464;50.558;9.704;2022-11-15T06:26:50;9.20;99.90
27162;DHT22;54464;50.558;9.704;2022-11-15T06:29:15;9.30;99.90
27162;DHT22;54464;50.558;9.704;2022-11-15T06:31:41;9.30;99.90
27162;DHT22;54464;50.558;9.704;2022-11-15T06:34:06;9.30;99.90
27162;DHT22;54464;50.558;9.704;2022-11-15T06:36:34;9.30;99.90
27162;DHT22;54464;50.558;9.704;2022-11-15T06:39:00;9.30;99.90
27162;DHT22;54464;50.558;9.704;2022-11-15T06:41:26;9.40;99.90
27162;DHT22;54464;50.558;9.704;2022-11-15T06:43:55;9.40;99.90
27162;DHT22;54464;50.558;9.704;2022-11-15T06:46:21;9.40;99.90
27162;DHT22;54464;50.558;9.704;2022-11-15T06:48:47;9.50;99.90
27162;DHT22;54464;50.558;9.704;2022-11-15T06:51:14;9.50;99.90
27162;DHT22;54464;50.558;9.704;2022-11-15T06:53:40;9.50;99.90
27162;DHT22;54464;50.558;9.704;2022-11-15T06:56:06;9.50;99.90
27162;DHT22;54464;50.558;9.704;2022-11-15T06:58:33;9.50;99.90
27162;DHT22;54464;50.558;9.704;2022-11-15T07:01:07;9.50;99.90
27162;DHT22;54464;50.558;9.704;2022-11-15T07:03:38;9.60;99.90
27162;DHT22;54464;50.558;9.704;2022-11-15T07:06:04;9.60;99.90
27162;DHT22;54464;50.558;9.704;2022-11-15T07:08:30;9.60;99.90
27162;DHT22;54464;50.558;9.704;2022-11-15T07:11:00;9.70;99.90
27162;DHT22;54464;50.558;9.704;2022-11-15T07:13:28;9.70;99.90
27162;DHT22;54464;50.558;9.704;2022-11-15T07:15:54;9.70;99.90
27162;DHT22;54464;50.558;9.704;2022-11-15T07:18:20;9.70;99.90
27162;DHT22;54464;50.558;9.704;2022-11-15T07:20:45;9.60;99.90
27162;DHT22;54464;50.558;9.704;2022-11-15T07:23:11;9.60;99.90
27162;DHT22;54464;50.558;9.704;2022-11-15T07:25:36;9.70;99.90
27162;DHT22;54464;50.558;9.704;2022-11-15T07:28:03;9.80;99.90
27162;DHT22;54464;50.558;9.704;2022-11-15T07:30:29;9.80;99.90
27162;DHT22;54464;50.558;9.704;2022-11-15T07:32:56;9.70;99.90
27162;DHT22;54464;50.558;9.704;2022-11-15T07:35:22;9.70;99.90
27162;DHT22;54464;50.558;9.704;2022-11-15T07:37:58;9.70;99.90
27162;DHT22;54464;50.558;9.704;2022-11-15T07:40:25;9.60;99.90
27162;DHT22;54464;50.558;9.704;2022-11-15T07:42:51;9.50;99.90
27162;DHT22;54464;50.558;9.704;2022-11-15T07:45:23;9.60;99.90
27162;DHT22;54464;50.558;9.704;2022-11-15T07:47:51;9.60;99.90
27162;DHT22;54464;50.558;9.704;2022-11-15T07:50:17;9.60;99.90
27162;DHT22;54464;50.558;9.704;2022-11-15T07:52:43;9.60;99.90
27162;DHT22;54464;50.558;9.704;2022-11-15T07:55:09;9.60;99.90
27162;DHT22;54464;50.558;9.704;2022-11-15T07:57:35;9.60;99.90
27162;DHT22;54464;50.558;9.704;2022-11-15T08:00:01;9.60;99.90
27162;DHT22;54464;50.558;9.704;2022-11-15T08:02:27;9.60;99.90
27162;DHT22;54464;50.558;9.704;2022-11-15T08:04:53;9.60;99.90
27162;DHT22;54464;50.558;9.704;2022-11-15T08:07:18;9.80;99.90
27162;DHT22;54464;50.558;9.704;2022-11-15T08:09:44;9.90;99.90
27162;DHT22;54464;50.558;9.704;2022-11-15T08:12:10;9.90;99.90
27162;DHT22;54464;50.558;9.704;2022-11-15T08:14:36;9.90;99.90
27162;DHT22;54464;50.558;9.704;2022-11-15T08:17:01;10.00;99.90
27162;DHT22;54464;50.558;9.704;2022-11-15T08:19:27;10.00;99.90
27162;DHT22;54464;50.558;9.704;2022-11-15T08:21:52;10.00;99.90
27162;DHT22;54464;50.558;9.704;2022-11-15T08:24:18;10.10;99.90
27162;DHT22;54464;50.558;9.704;2022-11-15T08:26:44;10.20;99.90
27162;DHT22;54464;50.558;9.704;2022-11-15T08:29:10;10.20;99.90
27162;DHT22;54464;50.558;9.704;2022-11-15T08:31:36;10.10;99.90
27162;DHT22;54464;50.558;9.704;2022-11-15T08:34:03;10.10;99.90
27162;DHT22;54464;50.558;9.704;2022-11-15T08:36:29;10.20;99.90
27162;DHT22;54464;50.558;9.704;2022-11-15T08:38:54;10.40;99.90
27162;DHT22;54464;50.558;9.704;2022-11-15T08:41:39;10.50;99.90
27162;DHT22;54464;50.558;9.704;2022-11-15T08:44:05;10.60;99.90
27162;DHT22;54464;50.558;9.704;2022-11-15T08:46:30;10.70;99.90
27162;DHT22;54464;50.558;9.704;2022-11-15T08:48:56;10.90;99.90
27162;DHT22;54464;50.558;9.704;2022-11-15T08:51:22;11.00;99.90
27162;DHT22;54464;50.558;9.704;2022-11-15T08:53:47;11.10;99.90
27162;DHT22;54464;50.558;9.704;2022-11-15T08:56:14;11.20;99.90
27162;DHT22;54464;50.558;9.704;2022-11-15T08:58:41;11.30;99.90
27162;DHT22;54464;50.558;9.704;2022-11-15T09:01:18;11.30;99.90
27162;DHT22;54464;50.558;9.704;2022-11-15T09:03:44;11.50;99.90
27162;DHT22;54464;50.558;9.704;2022-11-15T09:06:10;11.70;99.90
27162;DHT22;54464;50.558;9.704;2022-11-15T09:08:36;11.70;99.90
27162;DHT22;54464;50.558;9.704;2022-11-15T09:11:06;11.80;99.90
27162;DHT22;54464;50.558;9.704;2022-11-15T09:13:32;11.90;99.90
27162;DHT22;54464;50.558;9.704;2022-11-15T09:15:59;12.00;99.90
27162;DHT22;54464;50.558;9.704;2022-11-15T09:18:25;12.10;99.90
27162;DHT22;54464;50.558;9.704;2022-11-15T09:20:51;12.20;99.90
27162;DHT22;54464;50.558;9.704;2022-11-15T09:23:16;12.30;99.90
27162;DHT22;54464;50.558;9.704;2022-11-15T09:25:42;12.40;99.90
27162;DHT22;54464;50.558;9.704;2022-11-15T09:28:08;12.50;99.90
27162;DHT22;54464;50.558;9.704;2022-11-15T09:30:34;12.60;99.90
27162;DHT22;54464;50.558;9.704;2022-11-15T09:33:15;12.70;99.90
27162;DHT22;54464;50.558;9.704;2022-11-15T09:35:50;12.70;99.90
27162;DHT22;54464;50.558;9.704;2022-11-15T09:38:16;12.70;99.90
27162;DHT22;54464;50.558;9.704;2022-11-15T09:40:42;12.80;99.90
27162;DHT22;54464;50.558;9.704;2022-11-15T09:49:01;13.10;99.90
27162;DHT22;54464;50.558;9.704;2022-11-15T09:51:34;13.10;99.90
27162;DHT22;54464;50.558;9.704;2022-11-15T09:56:41;13.00;99.90
27162;DHT22;54464;50.558;9.704;2022-11-15T09:59:26;12.90;99.90
27162;DHT22;54464;50.558;9.704;2022-11-15T10:04:45;13.00;99.90
27162;DHT22;54464;50.558;9.704;2022-11-15T10:12:45;13.50;99.90
27162;DHT22;54464;50.558;9.704;2022-11-15T10:15:15;13.70;99.90
27162;DHT22;54464;50.558;9.704;2022-11-15T10:20:40;14.00;99.90
27162;DHT22;54464;50.558;9.704;2022-11-15T10:23:11;14.20;99.90
27162;DHT22;54464;50.558;9.704;2022-11-15T10:25:38;14.60;99.90
27162;DHT22;54464;50.558;9.704;2022-11-15T10:28:16;15.00;99.90
27162;DHT22;54464;50.558;9.704;2022-11-15T10:30:46;15.10;99.90
27162;DHT22;54464;50.558;9.704;2022-11-15T10:33:33;15.10;99.90
27162;DHT22;54464;50.558;9.704;2022-11-15T10:46:48;15.00;99.90
27162;DHT22;54464;50.558;9.704;2022-11-15T10:49:18;14.80;99.90
27162;DHT22;54464;50.558;9.704;2022-11-15T10:51:54;14.60;99.90
27162;DHT22;54464;50.558;9.704;2022-11-15T10:55:24;14.50;99.90
27162;DHT22;54464;50.558;9.704;2022-11-15T10:57:53;14.50;99.90
27162;DHT22;54464;50.558;9.704;2022-11-15T11:05:35;14.00;99.90
27162;DHT22;54464;50.558;9.704;2022-11-15T11:08:22;13.90;99.90
27162;DHT22;54464;50.558;9.704;2022-11-15T11:10:53;13.80;99.90
27162;DHT22;54464;50.558;9.704;2022-11-15T11:13:32;13.90;99.90
27162;DHT22;54464;50.558;9.704;2022-11-15T11:21:33;14.20;99.90
27162;DHT22;54464;50.558;9.704;2022-11-15T11:27:06;14.50;99.90
27162;DHT22;54464;50.558;9.704;2022-11-15T11:32:24;14.40;99.90
27162;DHT22;54464;50.558;9.704;2022-11-15T11:43:56;14.50;99.90
27162;DHT22;54464;50.558;9.704;2022-11-15T11:49:08;14.20;99.90
27162;DHT22;54464;50.558;9.704;2022-11-15T11:54:49;13.80;99.90
27162;DHT22;54464;50.558;9.704;2022-11-15T12:00:01;13.80;99.90
27162;DHT22;54464;50.558;9.704;2022-11-15T12:02:31;13.80;99.90
27162;DHT22;54464;50.558;9.704;2022-11-15T12:05:22;13.80;99.90
27162;DHT22;54464;50.558;9.704;2022-11-15T12:07:54;13.80;99.90
27162;DHT22;54464;50.558;9.704;2022-11-15T12:10:28;13.80;99.90
27162;DHT22;54464;50.558;9.704;2022-11-15T12:13:11;13.90;99.90
27162;DHT22;54464;50.558;9.704;2022-11-15T12:16:11;14.00;99.90
27162;DHT22;54464;50.558;9.704;2022-11-15T12:18:38;14.10;99.90
27162;DHT22;54464;50.558;9.704;2022-11-15T12:21:43;14.20;99.90
27162;DHT22;54464;50.558;9.704;2022-11-15T12:24:37;14.10;99.90
27162;DHT22;54464;50.558;9.704;2022-11-15T12:27:59;14.10;99.90
27162;DHT22;54464;50.558;9.704;2022-11-15T12:30:17;14.10;99.90
27162;DHT22;54464;50.558;9.704;2022-11-15T12:32:58;14.10;99.90
27162;DHT22;54464;50.558;9.704;2022-11-15T12:35:42;14.10;99.90
27162;DHT22;54464;50.558;9.704;2022-11-15T12:38:12;14.10;99.90
27162;DHT22;54464;50.558;9.704;2022-11-15T12:41:13;14.10;99.90
27162;DHT22;54464;50.558;9.704;2022-11-15T12:43:40;14.20;99.90
27162;DHT22;54464;50.558;9.704;2022-11-15T12:46:12;14.20;99.90
27162;DHT22;54464;50.558;9.704;2022-11-15T12:51:04;14.00;99.90
27162;DHT22;54464;50.558;9.704;2022-11-15T12:53:32;14.00;99.90
27162;DHT22;54464;50.558;9.704;2022-11-15T13:12:02;13.90;99.90
27162;DHT22;54464;50.558;9.704;2022-11-15T13:14:45;13.90;99.90
27162;DHT22;54464;50.558;9.704;2022-11-15T13:22:27;13.70;99.90
27162;DHT22;54464;50.558;9.704;2022-11-15T13:27:51;13.70;99.90
27162;DHT22;54464;50.558;9.704;2022-11-15T13:30:22;13.70;99.90
27162;DHT22;54464;50.558;9.704;2022-11-15T13:32:48;13.70;99.90
27162;DHT22;54464;50.558;9.704;2022-11-15T13:35:24;13.70;99.90
27162;DHT22;54464;50.558;9.704;2022-11-15T13:37:55;13.70;99.90
27162;DHT22;54464;50.558;9.704;2022-11-15T13:40:25;13.80;99.90
27162;DHT22;54464;50.558;9.704;2022-11-15T13:42:53;13.90;99.90
27162;DHT22;54464;50.558;9.704;2022-11-15T13:45:19;14.10;99.90
27162;DHT22;54464;50.558;9.704;2022-11-15T13:47:51;14.20;99.90
27162;DHT22;54464;50.558;9.704;2022-11-15T13:50:18;14.10;99.90
27162;DHT22;54464;50.558;9.704;2022-11-15T13:52:46;14.00;99.90
27162;DHT22;54464;50.558;9.704;2022-11-15T13:55:17;13.90;99.90
27162;DHT22;54464;50.558;9.704;2022-11-15T13:57:59;14.00;99.90
27162;DHT22;54464;50.558;9.704;2022-11-15T14:00:33;14.50;99.90
27162;DHT22;54464;50.558;9.704;2022-11-15T14:03:30;14.50;99.90
27162;DHT22;54464;50.558;9.704;2022-11-15T14:08:28;14.00;99.90
27162;DHT22;54464;50.558;9.704;2022-11-15T14:13:38;13.70;99.90
27162;DHT22;54464;50.558;9.704;2022-11-15T14:16:18;13.70;99.90
27162;DHT22;54464;50.558;9.704;2022-11-15T14:18:49;13.70;99.90
27162;DHT22;54464;50.558;9.704;2022-11-15T14:21:16;13.60;99.90
27162;DHT22;54464;50.558;9.704;2022-11-15T14:23:43;13.50;99.90
27162;DHT22;54464;50.558;9.704;2022-11-15T14:28:53;13.50;99.90
27162;DHT22;54464;50.558;9.704;2022-11-15T14:31:19;13.40;99.90
27162;DHT22;54464;50.558;9.704;2022-11-15T14:33:46;13.40;99.90
27162;DHT22;54464;50.558;9.704;2022-11-15T14:38:39;13.30;99.90
27162;DHT22;54464;50.558;9.704;2022-11-15T14:41:05;13.30;99.90
27162;DHT22;54464;50.558;9.704;2022-11-15T14:43:31;13.20;99.90
27162;DHT22;54464;50.558;9.704;2022-11-15T14:45:57;13.20;99.90
27162;DHT22;54464;50.558;9.704;2022-11-15T14:48:22;13.20;99.90
27162;DHT22;54464;50.558;9.704;2022-11-15T14:50:48;13.10;99.90
27162;DHT22;54464;50.558;9.704;2022-11-15T14:53:15;13.10;99.90
27162;DHT22;54464;50.558;9.704;2022-11-15T14:55:41;13.10;99.90
27162;DHT22;54464;50.558;9.704;2022-11-15T14:58:08;13.00;99.90
27162;DHT22;54464;50.558;9.704;2022-11-15T15:00:35;13.00;99.90
27162;DHT22;54464;50.558;9.704;2022-11-15T15:03:01;13.00;99.90
27162;DHT22;54464;50.558;9.704;2022-11-15T15:05:38;13.00;99.90
27162;DHT22;54464;50.558;9.704;2022-11-15T15:08:05;13.00;99.90
27162;DHT22;54464;50.558;9.704;2022-11-15T15:10:36;13.00;99.90
27162;DHT22;54464;50.558;9.704;2022-11-15T15:13:03;13.00;99.90
27162;DHT22;54464;50.558;9.704;2022-11-15T15:15:36;12.90;99.90
27162;DHT22;54464;50.558;9.704;2022-11-15T15:18:03;12.90;99.90
27162;DHT22;54464;50.558;9.704;2022-11-15T15:20:30;12.80;99.90
27162;DHT22;54464;50.558;9.704;2022-11-15T15:22:56;12.90;99.90
27162;DHT22;54464;50.558;9.704;2022-11-15T15:25:28;12.80;99.90
27162;DHT22;54464;50.558;9.704;2022-11-15T15:27:55;12.80;99.90
27162;DHT22;54464;50.558;9.704;2022-11-15T15:30:22;12.80;99.90
27162;DHT22;54464;50.558;9.704;2022-11-15T15:32:48;12.70;99.90
27162;DHT22;54464;50.558;9.704;2022-11-15T15:35:14;12.70;99.90
27162;DHT22;54464;50.558;9.704;2022-11-15T15:37:41;12.70;99.90
27162;DHT22;54464;50.558;9.704;2022-11-15T15:40:13;12.70;99.90
27162;DHT22;54464;50.558;9.704;2022-11-15T15:42:39;12.70;99.90
27162;DHT22;54464;50.558;9.704;2022-11-15T15:45:05;12.60;99.90
27162;DHT22;54464;50.558;9.704;2022-11-15T15:47:31;12.50;99.90
27162;DHT22;54464;50.558;9.704;2022-11-15T15:49:57;12.50;99.90
27162;DHT22;54464;50.558;9.704;2022-11-15T15:52:22;12.50;99.90
27162;DHT22;54464;50.558;9.704;2022-11-15T15:54:48;12.50;99.90
27162;DHT22;54464;50.558;9.704;2022-11-15T15:57:14;12.40;99.90
27162;DHT22;54464;50.558;9.704;2022-11-15T15:59:40;12.40;99.90
27162;DHT22;54464;50.558;9.704;2022-11-15T16:02:08;12.40;99.90
27162;DHT22;54464;50.558;9.704;2022-11-15T16:04:34;12.30;99.90
27162;DHT22;54464;50.558;9.704;2022-11-15T16:07:00;12.30;99.90
27162;DHT22;54464;50.558;9.704;2022-11-15T16:09:26;12.30;99.90
27162;DHT22;54464;50.558;9.704;2022-11-15T16:12:10;12.20;99.90
27162;DHT22;54464;50.558;9.704;2022-11-15T16:14:36;12.20;99.90
27162;DHT22;54464;50.558;9.704;2022-11-15T16:17:02;12.20;99.90
27162;DHT22;54464;50.558;9.704;2022-11-15T16:19:28;12.20;99.90
27162;DHT22;54464;50.558;9.704;2022-11-15T16:21:53;12.10;99.90
27162;DHT22;54464;50.558;9.704;2022-11-15T16:24:20;12.10;99.90
27162;DHT22;54464;50.558;9.704;2022-11-15T16:26:47;12.10;99.90
27162;DHT22;54464;50.558;9.704;2022-11-15T16:29:13;12.10;99.90
27162;DHT22;54464;50.558;9.704;2022-11-15T16:31:38;12.10;99.90
27162;DHT22;54464;50.558;9.704;2022-11-15T16:34:04;12.10;99.90
27162;DHT22;54464;50.558;9.704;2022-11-15T16:36:32;12.10;99.90
27162;DHT22;54464;50.558;9.704;2022-11-15T16:38:59;12.00;99.90
27162;DHT22;54464;50.558;9.704;2022-11-15T16:41:25;12.00;99.90
27162;DHT22;54464;50.558;9.704;2022-11-15T16:43:51;12.00;99.90
27162;DHT22;54464;50.558;9.704;2022-11-15T16:46:19;12.00;99.90
27162;DHT22;54464;50.558;9.704;2022-11-15T16:48:45;12.00;99.90
27162;DHT22;54464;50.558;9.704;2022-11-15T16:51:11;11.90;99.90
27162;DHT22;54464;50.558;9.704;2022-11-15T16:53:37;11.90;99.90
27162;DHT22;54464;50.558;9.704;2022-11-15T16:58:44;11.90;99.90
27162;DHT22;54464;50.558;9.704;2022-11-15T17:01:19;11.90;99.90
27162;DHT22;54464;50.558;9.704;2022-11-15T17:03:46;11.90;99.90
27162;DHT22;54464;50.558;9.704;2022-11-15T17:06:12;11.90;99.90
27162;DHT22;54464;50.558;9.704;2022-11-15T17:08:39;11.90;99.90
27162;DHT22;54464;50.558;9.704;2022-11-15T17:11:05;11.90;99.90
27162;DHT22;54464;50.558;9.704;2022-11-15T17:13:31;11.80;99.90
27162;DHT22;54464;50.558;9.704;2022-11-15T17:16:10;11.90;99.90
27162;DHT22;54464;50.558;9.704;2022-11-15T17:18:36;11.90;99.90
27162;DHT22;54464;50.558;9.704;2022-11-15T17:21:22;11.90;99.90
27162;DHT22;54464;50.558;9.704;2022-11-15T17:23:48;11.90;99.90
27162;DHT22;54464;50.558;9.704;2022-11-15T17:26:15;11.90;99.90
27162;DHT22;54464;50.558;9.704;2022-11-15T17:28:41;11.90;99.90
27162;DHT22;54464;50.558;9.704;2022-11-15T17:31:11;11.90;99.90
27162;DHT22;54464;50.558;9.704;2022-11-15T17:33:37;11.90;99.90
27162;DHT22;54464;50.558;9.704;2022-11-15T17:36:07;11.90;99.90
27162;DHT22;54464;50.558;9.704;2022-11-15T17:38:33;11.90;99.90
27162;DHT22;54464;50.558;9.704;2022-11-15T17:41:06;11.90;99.90
27162;DHT22;54464;50.558;9.704;2022-11-15T17:43:34;11.80;99.90
27162;DHT22;54464;50.558;9.704;2022-11-15T17:46:04;11.80;99.90
27162;DHT22;54464;50.558;9.704;2022-11-15T17:48:30;11.80;99.90
27162;DHT22;54464;50.558;9.704;2022-11-15T17:51:02;11.80;99.90
27162;DHT22;54464;50.558;9.704;2022-11-15T17:53:39;11.80;99.90
27162;DHT22;54464;50.558;9.704;2022-11-15T17:56:13;11.80;99.90
27162;DHT22;54464;50.558;9.704;2022-11-15T17:58:46;11.80;99.90
27162;DHT22;54464;50.558;9.704;2022-11-15T18:03:40;11.80;99.90
27162;DHT22;54464;50.558;9.704;2022-11-15T18:06:07;11.70;99.90
27162;DHT22;54464;50.558;9.704;2022-11-15T18:08:35;11.70;99.90
27162;DHT22;54464;50.558;9.704;2022-11-15T18:11:23;11.70;99.90
27162;DHT22;54464;50.558;9.704;2022-11-15T18:13:51;11.70;99.90
27162;DHT22;54464;50.558;9.704;2022-11-15T18:16:19;11.70;99.90
27162;DHT22;54464;50.558;9.704;2022-11-15T18:18:45;11.80;99.90
27162;DHT22;54464;50.558;9.704;2022-11-15T18:21:19;11.70;99.90
27162;DHT22;54464;50.558;9.704;2022-11-15T18:23:46;11.70;99.90
27162;DHT22;54464;50.558;9.704;2022-11-15T18:26:15;11.70;99.90
27162;DHT22;54464;50.558;9.704;2022-11-15T18:28:44;11.70;99.90
27162;DHT22;54464;50.558;9.704;2022-11-15T18:31:16;11.70;99.90
27162;DHT22;54464;50.558;9.704;2022-11-15T18:33:42;11.70;99.90
27162;DHT22;54464;50.558;9.704;2022-11-15T18:36:11;11.70;99.90
27162;DHT22;54464;50.558;9.704;2022-11-15T18:38:38;11.70;99.90
27162;DHT22;54464;50.558;9.704;2022-11-15T18:43:31;11.70;99.90
27162;DHT22;54464;50.558;9.704;2022-11-15T18:46:04;11.70;99.90
27162;DHT22;54464;50.558;9.704;2022-11-15T18:48:34;11.70;99.90
27162;DHT22;54464;50.558;9.704;2022-11-15T18:51:13;11.70;99.90
27162;DHT22;54464;50.558;9.704;2022-11-15T18:53:40;11.60;99.90
27162;DHT22;54464;50.558;9.704;2022-11-15T18:56:08;11.70;99.90
27162;DHT22;54464;50.558;9.704;2022-11-15T18:58:43;11.60;99.90
27162;DHT22;54464;50.558;9.704;2022-11-15T19:01:19;11.60;99.90
27162;DHT22;54464;50.558;9.704;2022-11-15T19:03:50;11.60;99.90
27162;DHT22;54464;50.558;9.704;2022-11-15T19:06:21;11.60;99.90
27162;DHT22;54464;50.558;9.704;2022-11-15T19:08:48;11.60;99.90
27162;DHT22;54464;50.558;9.704;2022-11-15T19:13:52;11.60;99.90
27162;DHT22;54464;50.558;9.704;2022-11-15T19:16:20;11.60;99.90
27162;DHT22;54464;50.558;9.704;2022-11-15T19:18:45;11.60;99.90
27162;DHT22;54464;50.558;9.704;2022-11-15T19:21:12;11.50;99.90
27162;DHT22;54464;50.558;9.704;2022-11-15T19:23:42;11.50;99.90
27162;DHT22;54464;50.558;9.704;2022-11-15T19:26:12;11.50;99.90
27162;DHT22;54464;50.558;9.704;2022-11-15T19:28:38;11.50;99.90
27162;DHT22;54464;50.558;9.704;2022-11-15T19:31:12;11.50;99.90
27162;DHT22;54464;50.558;9.704;2022-11-15T19:33:39;11.50;99.90
27162;DHT22;54464;50.558;9.704;2022-11-15T19:36:11;11.50;99.90